createdAt,value
2023-04-20T00:01:15.051Z,7.70
2023-04-20T00:03:42.218Z,7.70
2023-04-20T00:06:09.271Z,7.70
2023-04-20T00:08:36.167Z,7.70
2023-04-20T00:11:02.993Z,7.60
2023-04-20T00:13:29.884Z,7.60
2023-04-20T00:15:56.637Z,7.60
2023-04-20T00:18:29.470Z,7.60
2023-04-20T00:20:57.366Z,7.50
2023-04-20T00:23:24.228Z,7.50
2023-04-20T00:25:52.200Z,7.50
2023-04-20T00:28:19.036Z,7.50
2023-04-20T00:30:46.132Z,7.50
2023-04-20T00:33:12.933Z,7.40
2023-04-20T00:35:39.728Z,7.40
2023-04-20T00:38:13.534Z,7.40
2023-04-20T00:40:43.129Z,7.30
2023-04-20T00:43:14.510Z,7.30
2023-04-20T00:45:41.429Z,7.20
2023-04-20T00:48:08.187Z,7.20
2023-04-20T00:50:35.966Z,7.20
2023-04-20T00:53:03.596Z,7.10
2023-04-20T00:55:31.178Z,7.10
2023-04-20T00:57:58.433Z,7.10
2023-04-20T01:00:26.479Z,7.10
2023-04-20T01:02:53.396Z,7.00
2023-04-20T01:05:21.238Z,7.00
2023-04-20T01:07:47.972Z,7.00
2023-04-20T01:10:14.978Z,7.00
2023-04-20T01:12:42.158Z,6.90
2023-04-20T01:15:09.776Z,6.90
2023-04-20T01:17:40.167Z,6.90
2023-04-20T01:20:09.245Z,6.90
2023-04-20T01:22:51.030Z,6.80
2023-04-20T01:25:18.414Z,6.80
2023-04-20T01:27:45.565Z,6.80
2023-04-20T01:30:15.875Z,6.80
2023-04-20T01:32:42.865Z,6.80
2023-04-20T01:35:12.457Z,6.80
2023-04-20T01:37:40.768Z,6.80
2023-04-20T01:40:11.745Z,6.90
2023-04-20T01:42:41.747Z,6.90
2023-04-20T01:45:17.544Z,6.80
2023-04-20T01:47:44.526Z,6.80
2023-04-20T01:50:14.764Z,6.80
2023-04-20T01:52:41.697Z,6.80
2023-04-20T01:55:08.980Z,6.80
2023-04-20T01:57:36.266Z,6.80
2023-04-20T02:00:04.254Z,6.80
2023-04-20T02:02:31.154Z,6.80
2023-04-20T02:04:58.356Z,6.70
2023-04-20T02:07:25.421Z,6.70
2023-04-20T02:09:52.200Z,6.70
2023-04-20T02:12:19.218Z,6.70
2023-04-20T02:14:46.136Z,6.60
2023-04-20T02:17:14.010Z,6.70
2023-04-20T02:19:41.084Z,6.70
2023-04-20T02:22:07.869Z,6.70
2023-04-20T02:24:35.034Z,6.70
2023-04-20T02:27:02.531Z,6.80
2023-04-20T02:29:29.333Z,6.80
2023-04-20T02:31:56.271Z,6.80
2023-04-20T02:34:23.060Z,6.80
2023-04-20T02:36:52.817Z,6.90
2023-04-20T02:39:21.903Z,6.90
2023-04-20T02:41:48.585Z,7.00
2023-04-20T02:44:15.398Z,7.00
2023-04-20T02:46:42.234Z,7.00
2023-04-20T02:49:11.756Z,7.00
2023-04-20T02:51:38.584Z,7.00
2023-04-20T02:54:05.710Z,7.00
2023-04-20T02:56:32.489Z,7.00
2023-04-20T02:58:59.383Z,7.00
2023-04-20T03:01:26.456Z,7.00
2023-04-20T03:03:53.411Z,7.00
2023-04-20T03:06:20.514Z,7.00
2023-04-20T03:08:47.492Z,7.00
2023-04-20T03:11:16.388Z,7.00
2023-04-20T03:13:43.141Z,7.10
2023-04-20T03:16:13.904Z,7.10
2023-04-20T03:18:40.687Z,7.10
2023-04-20T03:21:07.528Z,7.20
2023-04-20T03:23:37.358Z,7.20
2023-04-20T03:26:04.404Z,7.30
2023-04-20T03:28:31.199Z,7.30
2023-04-20T03:30:58.283Z,7.40
2023-04-20T03:33:25.123Z,7.40
2023-04-20T03:35:51.787Z,7.50
2023-04-20T03:38:18.632Z,7.50
2023-04-20T03:40:46.070Z,7.60
2023-04-20T03:43:16.124Z,7.60
2023-04-20T03:45:45.708Z,7.60
2023-04-20T03:48:12.628Z,7.70
2023-04-20T03:50:39.383Z,7.70
2023-04-20T03:53:06.618Z,7.80
2023-04-20T03:55:36.411Z,7.80
2023-04-20T03:58:06.467Z,7.80
2023-04-20T04:00:34.788Z,7.90
2023-04-20T04:03:01.773Z,7.90
2023-04-20T04:05:28.900Z,8.00
2023-04-20T04:07:55.867Z,8.00
2023-04-20T04:10:22.695Z,8.00
2023-04-20T04:12:51.392Z,8.00
2023-04-20T04:15:19.531Z,8.10
2023-04-20T04:17:46.545Z,8.10
2023-04-20T04:20:13.659Z,8.10
2023-04-20T04:22:43.553Z,8.10
2023-04-20T04:25:11.466Z,8.10
2023-04-20T04:27:39.941Z,8.20
2023-04-20T04:30:09.449Z,8.20
2023-04-20T04:32:36.323Z,8.20
2023-04-20T04:35:03.593Z,8.20
2023-04-20T04:37:30.552Z,8.30
2023-04-20T04:39:58.248Z,8.30
2023-04-20T04:42:25.119Z,8.30
2023-04-20T04:44:53.690Z,8.30
2023-04-20T04:47:22.146Z,8.30
2023-04-20T04:49:49.866Z,8.40
2023-04-20T04:52:16.657Z,8.40
2023-04-20T04:54:45.253Z,8.40
2023-04-20T04:57:12.056Z,8.40
2023-04-20T04:59:39.211Z,8.40
2023-04-20T05:02:06.019Z,8.40
2023-04-20T05:04:33.016Z,8.50
2023-04-20T05:06:59.946Z,8.50
2023-04-20T05:09:33.494Z,8.50
2023-04-20T05:12:01.099Z,8.50
2023-04-20T05:14:27.904Z,8.50
2023-04-20T05:16:54.888Z,8.50
2023-04-20T05:19:21.634Z,8.50
2023-04-20T05:21:50.980Z,8.50
2023-04-20T05:24:19.389Z,8.60
2023-04-20T05:26:46.757Z,8.60
2023-04-20T05:29:15.639Z,8.60
2023-04-20T05:31:42.594Z,8.60
2023-04-20T05:34:09.416Z,8.60
2023-04-20T05:36:36.381Z,8.60
2023-04-20T05:39:03.512Z,8.70
2023-04-20T05:41:30.497Z,8.70
2023-04-20T05:44:00.207Z,8.80
2023-04-20T05:46:27.656Z,8.80
2023-04-20T05:48:54.631Z,8.80
2023-04-20T05:51:22.481Z,8.90
2023-04-20T05:53:49.224Z,9.00
2023-04-20T05:56:16.118Z,9.00
2023-04-20T05:58:43.367Z,9.10
2023-04-20T06:01:10.121Z,9.20
2023-04-20T06:03:39.957Z,9.20
2023-04-20T06:06:07.223Z,9.30
2023-04-20T06:08:34.017Z,9.30
2023-04-20T06:11:00.933Z,9.40
2023-04-20T06:13:27.714Z,9.50
2023-04-20T06:15:54.882Z,9.50
2023-04-20T06:18:21.690Z,9.60
2023-04-20T06:20:48.608Z,9.60
2023-04-20T06:23:15.700Z,9.60
2023-04-20T06:25:42.793Z,9.70
2023-04-20T06:28:09.514Z,9.70
2023-04-20T06:30:36.356Z,9.80
2023-04-20T06:33:03.572Z,9.80
2023-04-20T06:35:30.562Z,10.00
2023-04-20T06:37:57.682Z,10.10
2023-04-20T06:40:28.157Z,10.20
2023-04-20T06:42:55.084Z,10.30
2023-04-20T06:45:21.841Z,10.40
2023-04-20T06:47:48.877Z,10.50
2023-04-20T06:50:15.934Z,10.50
2023-04-20T06:52:42.856Z,10.50
2023-04-20T06:55:10.171Z,10.50
2023-04-20T06:57:40.273Z,10.60
2023-04-20T07:00:09.703Z,10.70
2023-04-20T07:02:48.148Z,10.80
2023-04-20T07:05:15.860Z,10.90
2023-04-20T07:07:43.133Z,10.90
2023-04-20T07:10:11.770Z,11.00
2023-04-20T07:12:42.192Z,11.00
2023-04-20T07:15:10.132Z,11.00
2023-04-20T07:17:36.929Z,11.00
2023-04-20T07:20:13.493Z,11.00
2023-04-20T07:22:40.552Z,11.00
2023-04-20T07:25:09.169Z,11.00
2023-04-20T07:27:40.718Z,11.00
2023-04-20T07:30:11.295Z,11.00
2023-04-20T07:32:39.413Z,11.00
2023-04-20T07:35:06.635Z,11.00
2023-04-20T07:37:34.440Z,11.00
2023-04-20T07:40:02.100Z,11.00
2023-04-20T07:42:29.886Z,11.00
2023-04-20T07:44:56.747Z,11.10
2023-04-20T07:47:23.584Z,11.10
2023-04-20T07:49:50.311Z,11.20
2023-04-20T07:52:18.347Z,11.20
2023-04-20T07:54:45.728Z,11.30
2023-04-20T07:57:15.394Z,11.40
2023-04-20T07:59:42.267Z,11.60
2023-04-20T08:02:09.508Z,12.00
2023-04-20T08:04:38.324Z,12.80
2023-04-20T08:07:08.087Z,13.80
2023-04-20T08:09:34.870Z,14.70
2023-04-20T08:12:02.000Z,15.50
2023-04-20T08:14:28.825Z,16.10
2023-04-20T08:16:55.637Z,16.60
2023-04-20T08:19:22.427Z,17.00
2023-04-20T08:21:51.228Z,17.30
2023-04-20T08:24:18.239Z,17.50
2023-04-20T08:26:45.754Z,17.40
2023-04-20T08:29:12.562Z,17.10
2023-04-20T08:31:42.010Z,16.80
2023-04-20T08:34:08.908Z,16.50
2023-04-20T08:36:36.214Z,16.20
2023-04-20T08:39:13.412Z,15.90
2023-04-20T08:41:40.346Z,15.60
2023-04-20T08:44:08.198Z,15.40
2023-04-20T08:46:35.573Z,15.10
2023-04-20T08:49:05.493Z,15.00
2023-04-20T08:51:32.585Z,14.90
2023-04-20T08:54:06.681Z,14.80
2023-04-20T08:56:36.746Z,14.70
2023-04-20T08:59:05.740Z,14.60
2023-04-20T09:01:36.219Z,14.50
2023-04-20T09:04:14.864Z,14.40
2023-04-20T09:06:47.757Z,14.50
2023-04-20T09:09:14.722Z,14.50
2023-04-20T09:11:41.777Z,14.40
2023-04-20T09:14:10.308Z,14.50
2023-04-20T09:16:39.477Z,14.40
2023-04-20T09:19:09.885Z,14.40
2023-04-20T09:21:37.404Z,14.40
2023-04-20T09:24:08.884Z,14.40
2023-04-20T09:26:36.602Z,14.30
2023-04-20T09:29:04.511Z,14.30
2023-04-20T09:31:31.336Z,14.20
2023-04-20T09:34:02.706Z,14.10
2023-04-20T09:36:41.059Z,13.90
2023-04-20T09:39:10.598Z,13.90
2023-04-20T09:41:39.437Z,13.80
2023-04-20T09:44:06.991Z,13.70
2023-04-20T09:46:36.009Z,13.60
2023-04-20T09:49:07.974Z,13.60
2023-04-20T09:51:41.702Z,13.50
2023-04-20T09:54:10.489Z,13.40
2023-04-20T09:56:38.164Z,13.30
2023-04-20T09:59:05.028Z,13.30
2023-04-20T10:01:34.849Z,13.20
2023-04-20T10:04:04.008Z,13.10
2023-04-20T10:06:35.841Z,13.10
2023-04-20T10:09:05.535Z,13.00
2023-04-20T10:11:49.793Z,13.00
2023-04-20T10:14:24.509Z,13.00
2023-04-20T10:17:06.578Z,12.90
2023-04-20T10:19:44.754Z,12.90
2023-04-20T10:22:14.126Z,13.00
2023-04-20T10:24:40.919Z,13.00
2023-04-20T10:27:21.814Z,13.00
2023-04-20T10:29:48.813Z,13.10
2023-04-20T10:32:29.484Z,13.10
2023-04-20T10:35:11.629Z,13.20
2023-04-20T10:37:51.731Z,13.20
2023-04-20T10:40:29.034Z,13.30
2023-04-20T10:42:55.936Z,13.30
2023-04-20T10:45:37.162Z,13.30
2023-04-20T10:48:09.001Z,13.30
2023-04-20T10:50:36.224Z,13.40
2023-04-20T10:53:04.638Z,13.40
2023-04-20T10:55:32.049Z,13.40
2023-04-20T10:57:58.828Z,13.50
2023-04-20T11:00:29.574Z,13.50
2023-04-20T11:03:00.016Z,13.60
2023-04-20T11:05:27.919Z,13.70
2023-04-20T11:07:59.668Z,13.70
2023-04-20T11:10:49.663Z,13.70
2023-04-20T11:13:22.662Z,13.70
2023-04-20T11:15:49.592Z,13.80
2023-04-20T11:18:16.651Z,13.90
2023-04-20T11:20:53.996Z,14.30
2023-04-20T11:23:22.514Z,14.60
2023-04-20T11:26:09.727Z,14.70
2023-04-20T11:28:36.721Z,14.70
2023-04-20T11:31:04.060Z,14.70
2023-04-20T11:33:33.739Z,14.70
2023-04-20T11:36:02.221Z,15.00
2023-04-20T11:38:30.063Z,15.40
2023-04-20T11:40:57.537Z,15.80
2023-04-20T11:43:24.397Z,16.00
2023-04-20T11:45:51.151Z,15.90
2023-04-20T11:48:18.901Z,15.70
2023-04-20T11:50:46.115Z,15.50
2023-04-20T11:53:14.794Z,15.30
2023-04-20T11:55:42.107Z,15.20
2023-04-20T11:58:11.647Z,15.20
2023-04-20T12:00:38.459Z,15.30
2023-04-20T12:03:05.368Z,15.30
2023-04-20T12:05:35.607Z,15.30
2023-04-20T12:08:02.553Z,15.30
2023-04-20T12:10:29.460Z,15.20
2023-04-20T12:12:56.888Z,15.20
2023-04-20T12:15:26.585Z,15.10
2023-04-20T12:17:53.596Z,15.00
2023-04-20T12:20:20.553Z,14.90
2023-04-20T12:22:47.261Z,14.80
2023-04-20T12:25:14.194Z,14.70
2023-04-20T12:27:43.771Z,14.60
2023-04-20T12:30:11.053Z,14.40
2023-04-20T12:32:37.805Z,14.30
2023-04-20T12:35:04.840Z,14.20
2023-04-20T12:37:32.136Z,14.10
2023-04-20T12:39:58.964Z,14.00
2023-04-20T12:42:25.653Z,13.80
2023-04-20T12:44:56.204Z,13.70
2023-04-20T12:47:23.204Z,13.60
2023-04-20T12:49:52.072Z,13.50
2023-04-20T12:52:18.819Z,13.40
2023-04-20T12:54:46.301Z,13.30
2023-04-20T12:57:13.211Z,13.20
2023-04-20T12:59:39.990Z,13.20
2023-04-20T13:02:06.719Z,13.20
2023-04-20T13:04:33.568Z,13.20
2023-04-20T13:07:00.376Z,13.20
2023-04-20T13:09:27.316Z,13.20
2023-04-20T13:11:54.278Z,13.30
2023-04-20T13:14:21.361Z,13.40
2023-04-20T13:16:48.538Z,13.40
2023-04-20T13:19:15.679Z,13.50
2023-04-20T13:21:42.601Z,13.50
2023-04-20T13:24:09.849Z,13.40
2023-04-20T13:26:37.450Z,13.40
2023-04-20T13:29:04.295Z,13.40
2023-04-20T13:31:32.420Z,13.40
2023-04-20T13:33:59.217Z,13.40
2023-04-20T13:36:26.259Z,13.40
2023-04-20T13:38:56.467Z,13.30
2023-04-20T13:41:26.444Z,13.40
2023-04-20T13:43:53.293Z,13.40
2023-04-20T13:46:26.043Z,13.50
2023-04-20T13:48:52.839Z,13.50
2023-04-20T13:51:20.079Z,13.60
2023-04-20T13:53:49.616Z,13.70
2023-04-20T13:56:16.897Z,13.80
2023-04-20T13:58:43.970Z,13.80
2023-04-20T14:01:18.106Z,13.90
2023-04-20T14:03:45.034Z,13.90
2023-04-20T14:06:12.079Z,14.00
2023-04-20T14:08:38.808Z,14.20
2023-04-20T14:11:05.912Z,14.30
2023-04-20T14:13:32.672Z,14.40
2023-04-20T14:15:59.552Z,14.40
2023-04-20T14:18:26.283Z,14.40
2023-04-20T14:20:53.309Z,14.40
2023-04-20T14:23:20.044Z,14.40
2023-04-20T14:25:46.905Z,14.30
2023-04-20T14:28:17.696Z,14.30
2023-04-20T14:30:45.948Z,14.20
2023-04-20T14:33:12.886Z,14.20
2023-04-20T14:35:39.790Z,14.20
2023-04-20T14:38:06.642Z,14.30
2023-04-20T14:40:33.496Z,14.50
2023-04-20T14:43:00.729Z,14.70
2023-04-20T14:45:27.569Z,14.90
2023-04-20T14:47:55.450Z,15.10
2023-04-20T14:50:29.735Z,15.30
2023-04-20T14:52:56.417Z,15.60
2023-04-20T14:55:25.874Z,15.70
2023-04-20T14:57:57.064Z,15.70
2023-04-20T15:00:25.423Z,15.70
2023-04-20T15:02:53.277Z,15.60
2023-04-20T15:05:20.451Z,15.60
2023-04-20T15:07:50.658Z,15.60
2023-04-20T15:10:18.692Z,15.50
2023-04-20T15:12:46.049Z,15.50
2023-04-20T15:15:15.555Z,15.40
2023-04-20T15:17:42.385Z,15.30
2023-04-20T15:20:09.854Z,15.30
2023-04-20T15:22:37.454Z,15.40
2023-04-20T15:25:04.829Z,15.40
2023-04-20T15:27:31.742Z,15.50
2023-04-20T15:29:58.525Z,15.60
2023-04-20T15:32:26.453Z,15.60
2023-04-20T15:34:53.396Z,15.60
2023-04-20T15:37:20.129Z,15.50
2023-04-20T15:39:46.895Z,15.40
2023-04-20T15:42:16.865Z,15.20
2023-04-20T15:44:43.595Z,15.10
2023-04-20T15:47:10.771Z,15.00
2023-04-20T15:49:40.753Z,14.90
2023-04-20T15:52:11.211Z,14.70
2023-04-20T15:54:38.267Z,14.70
2023-04-20T15:57:05.343Z,14.60
2023-04-20T15:59:32.494Z,14.60
2023-04-20T16:01:59.351Z,14.40
2023-04-20T16:04:26.281Z,14.30
2023-04-20T16:06:53.156Z,14.40
2023-04-20T16:09:20.803Z,14.50
2023-04-20T16:11:49.098Z,14.70
2023-04-20T16:14:16.022Z,14.90
2023-04-20T16:16:42.827Z,15.20
2023-04-20T16:19:14.593Z,15.30
2023-04-20T16:21:41.550Z,15.40
2023-04-20T16:24:08.501Z,15.30
2023-04-20T16:26:35.433Z,15.20
2023-04-20T16:29:05.032Z,15.00
2023-04-20T16:31:31.847Z,14.90
2023-04-20T16:34:00.823Z,14.70
2023-04-20T16:36:27.714Z,14.70
2023-04-20T16:38:54.622Z,14.70
2023-04-20T16:41:21.913Z,14.70
2023-04-20T16:43:48.684Z,14.80
2023-04-20T16:46:16.461Z,14.80
2023-04-20T16:48:44.178Z,14.90
2023-04-20T16:51:10.932Z,15.00
2023-04-20T16:53:37.623Z,15.10
2023-04-20T16:56:04.697Z,15.20
2023-04-20T16:58:31.565Z,15.20
2023-04-20T17:00:58.415Z,15.10
2023-04-20T17:03:25.420Z,15.10
2023-04-20T17:05:52.214Z,15.00
2023-04-20T17:08:19.036Z,14.90
2023-04-20T17:10:46.495Z,14.80
2023-04-20T17:13:13.512Z,14.70
2023-04-20T17:15:42.625Z,14.70
2023-04-20T17:18:09.336Z,14.60
2023-04-20T17:20:36.396Z,14.60
2023-04-20T17:23:03.212Z,14.50
2023-04-20T17:25:29.969Z,14.50
2023-04-20T17:27:56.739Z,14.40
2023-04-20T17:30:23.516Z,14.40
2023-04-20T17:32:50.242Z,14.30
2023-04-20T17:35:17.032Z,14.30
2023-04-20T17:37:44.103Z,14.30
2023-04-20T17:40:11.352Z,14.20
2023-04-20T17:42:38.295Z,14.20
2023-04-20T17:45:08.472Z,14.10
2023-04-20T17:47:35.345Z,14.00
2023-04-20T17:50:02.242Z,14.00
2023-04-20T17:52:31.914Z,13.80
2023-04-20T17:55:00.284Z,13.70
2023-04-20T17:57:27.116Z,13.60
2023-04-20T17:59:56.824Z,13.50
2023-04-20T18:02:25.240Z,13.50
2023-04-20T18:04:52.511Z,13.40
2023-04-20T18:07:22.325Z,13.30
2023-04-20T18:09:49.129Z,13.20
2023-04-20T18:12:15.850Z,13.10
2023-04-20T18:14:42.632Z,13.10
2023-04-20T18:17:09.487Z,13.00
2023-04-20T18:19:38.571Z,12.90
2023-04-20T18:22:05.488Z,12.80
2023-04-20T18:24:32.211Z,12.80
2023-04-20T18:26:59.167Z,12.80
2023-04-20T18:29:26.239Z,12.70
2023-04-20T18:31:55.033Z,12.70
2023-04-20T18:34:22.163Z,12.60
2023-04-20T18:36:49.020Z,12.60
2023-04-20T18:39:16.203Z,12.40
2023-04-20T18:41:42.917Z,12.40
2023-04-20T18:44:09.641Z,12.30
2023-04-20T18:46:37.100Z,12.20
2023-04-20T18:49:04.512Z,12.20
2023-04-20T18:51:32.434Z,12.10
2023-04-20T18:53:59.214Z,12.10
2023-04-20T18:56:27.186Z,12.10
2023-04-20T18:58:57.689Z,12.00
2023-04-20T19:01:36.808Z,12.00
2023-04-20T19:04:04.274Z,11.90
2023-04-20T19:06:31.394Z,11.90
2023-04-20T19:09:07.286Z,11.90
2023-04-20T19:11:36.196Z,11.90
2023-04-20T19:14:03.170Z,11.80
2023-04-20T19:16:31.453Z,11.80
2023-04-20T19:18:58.653Z,11.80
2023-04-20T19:21:27.058Z,11.70
2023-04-20T19:23:53.848Z,11.60
2023-04-20T19:26:25.810Z,11.60
2023-04-20T19:28:53.460Z,11.50
2023-04-20T19:31:21.314Z,11.40
2023-04-20T19:33:48.139Z,11.40
2023-04-20T19:36:19.164Z,11.30
2023-04-20T19:38:55.875Z,11.20
2023-04-20T19:41:22.906Z,11.10
2023-04-20T19:43:49.662Z,11.00
2023-04-20T19:46:17.547Z,11.00
2023-04-20T19:48:44.938Z,10.90
2023-04-20T19:51:11.816Z,10.90
2023-04-20T19:53:38.583Z,10.80
2023-04-20T19:56:06.517Z,10.80
2023-04-20T19:58:33.540Z,10.80
2023-04-20T20:01:00.329Z,10.80
2023-04-20T20:03:27.653Z,10.70
2023-04-20T20:05:54.595Z,10.70
2023-04-20T20:08:29.149Z,10.60
2023-04-20T20:10:55.952Z,10.60
2023-04-20T20:13:22.719Z,10.60
2023-04-20T20:15:49.601Z,10.60
2023-04-20T20:18:16.602Z,10.60
2023-04-20T20:20:43.492Z,10.50
2023-04-20T20:23:10.356Z,10.50
2023-04-20T20:25:37.344Z,10.50
2023-04-20T20:28:04.299Z,10.50
2023-04-20T20:30:32.109Z,10.50
2023-04-20T20:32:59.070Z,10.40
2023-04-20T20:35:31.776Z,10.40
2023-04-20T20:37:59.316Z,10.40
2023-04-20T20:40:26.552Z,10.40
2023-04-20T20:42:56.832Z,10.30
2023-04-20T20:45:23.837Z,10.30
2023-04-20T20:47:50.678Z,10.30
2023-04-20T20:50:19.785Z,10.30
2023-04-20T20:52:46.605Z,10.30
2023-04-20T20:55:13.600Z,10.30
2023-04-20T20:57:40.393Z,10.30
2023-04-20T21:00:10.071Z,10.20
2023-04-20T21:02:37.815Z,10.20
2023-04-20T21:05:05.440Z,10.20
2023-04-20T21:07:32.257Z,10.20
2023-04-20T21:09:58.970Z,10.20
2023-04-20T21:12:25.950Z,10.20
2023-04-20T21:15:03.614Z,10.20
2023-04-20T21:17:31.288Z,10.20
2023-04-20T21:19:58.086Z,10.20
2023-04-20T21:22:24.834Z,10.20
2023-04-20T21:24:54.376Z,10.20
2023-04-20T21:27:21.122Z,10.20
2023-04-20T21:29:47.822Z,10.20
2023-04-20T21:32:14.722Z,10.20
2023-04-20T21:34:44.770Z,10.20
2023-04-20T21:37:11.581Z,10.20
2023-04-20T21:39:38.366Z,10.20
2023-04-20T21:42:05.415Z,10.20
2023-04-20T21:44:32.224Z,10.20
2023-04-20T21:46:59.257Z,10.20
2023-04-20T21:49:26.113Z,10.20
2023-04-20T21:51:52.900Z,10.20
2023-04-20T21:54:19.697Z,10.20
2023-04-20T21:56:47.061Z,10.20
2023-04-20T21:59:14.469Z,10.20
2023-04-20T22:01:41.356Z,10.20
2023-04-20T22:04:09.621Z,10.20
2023-04-20T22:06:36.563Z,10.20
2023-04-20T22:09:04.529Z,10.20
2023-04-20T22:11:31.389Z,10.20
2023-04-20T22:14:00.463Z,10.20
2023-04-20T22:16:28.559Z,10.20
2023-04-20T22:18:57.894Z,10.20
2023-04-20T22:21:24.670Z,10.20
2023-04-20T22:23:51.415Z,10.20
2023-04-20T22:26:18.142Z,10.20
2023-04-20T22:28:44.946Z,10.20
2023-04-20T22:31:11.885Z,10.20
2023-04-20T22:33:38.869Z,10.10
2023-04-20T22:36:08.485Z,10.10
2023-04-20T22:38:38.280Z,10.10
2023-04-20T22:41:05.202Z,10.10
2023-04-20T22:43:32.394Z,10.10
2023-04-20T22:45:59.245Z,10.10
2023-04-20T22:48:25.969Z,10.10
2023-04-20T22:50:53.421Z,10.10
2023-04-20T22:53:20.157Z,10.00
2023-04-20T22:55:46.878Z,10.00
2023-04-20T22:58:13.617Z,10.00
2023-04-20T23:00:40.868Z,10.00
2023-04-20T23:03:08.097Z,10.00
2023-04-20T23:05:35.482Z,10.00
2023-04-20T23:08:02.158Z,10.00
2023-04-20T23:10:29.537Z,10.00
2023-04-20T23:13:03.955Z,9.90
2023-04-20T23:15:30.997Z,9.90
2023-04-20T23:17:57.809Z,9.90
2023-04-20T23:20:24.813Z,9.90
2023-04-20T23:22:51.530Z,9.80
2023-04-20T23:25:18.297Z,9.80
2023-04-20T23:27:44.982Z,9.80
2023-04-20T23:30:15.177Z,9.80
2023-04-20T23:32:44.357Z,9.80
2023-04-20T23:35:11.416Z,9.70
2023-04-20T23:37:38.335Z,9.70
2023-04-20T23:40:07.217Z,9.70
2023-04-20T23:42:37.422Z,9.60
2023-04-20T23:45:05.826Z,9.60
2023-04-20T23:47:32.793Z,9.60
2023-04-20T23:49:59.602Z,9.60
2023-04-20T23:52:26.299Z,9.60
2023-04-20T23:54:53.224Z,9.60
2023-04-20T23:57:19.920Z,9.60
2023-04-20T23:59:46.703Z,9.60
